sensor_id;sensor_type;location;lat;lon;timestamp;P1;durP1;ratioP1;P2;durP2;ratioP2
54845;SDS011;53889;50.084;8.646;2022-09-02T00:00:53;1.92;;;1.15;;
54845;SDS011;53889;50.084;8.646;2022-09-02T00:03:25;2.42;;;1.30;;
54845;SDS011;53889;50.084;8.646;2022-09-02T00:05:54;2.40;;;1.42;;
54845;SDS011;53889;50.084;8.646;2022-09-02T00:08:20;2.88;;;1.40;;
54845;SDS011;53889;50.084;8.646;2022-09-02T00:10:47;2.88;;;1.38;;
54845;SDS011;53889;50.084;8.646;2022-09-02T00:13:15;3.35;;;1.60;;
54845;SDS011;53889;50.084;8.646;2022-09-02T00:15:43;3.08;;;1.35;;
54845;SDS011;53889;50.084;8.646;2022-09-02T00:18:10;2.95;;;1.30;;
54845;SDS011;53889;50.084;8.646;2022-09-02T00:20:40;2.63;;;1.08;;
54845;SDS011;53889;50.084;8.646;2022-09-02T00:23:10;5.43;;;2.25;;
54845;SDS011;53889;50.084;8.646;2022-09-02T00:25:37;2.53;;;1.42;;
54845;SDS011;53889;50.084;8.646;2022-09-02T00:28:05;4.10;;;1.48;;
54845;SDS011;53889;50.084;8.646;2022-09-02T00:30:33;3.22;;;1.20;;
54845;SDS011;53889;50.084;8.646;2022-09-02T00:33:00;3.85;;;1.30;;
54845;SDS011;53889;50.084;8.646;2022-09-02T00:35:27;3.90;;;1.40;;
54845;SDS011;53889;50.084;8.646;2022-09-02T00:37:56;4.05;;;1.40;;
54845;SDS011;53889;50.084;8.646;2022-09-02T00:40:23;4.25;;;1.30;;
54845;SDS011;53889;50.084;8.646;2022-09-02T00:42:50;2.10;;;1.23;;
54845;SDS011;53889;50.084;8.646;2022-09-02T00:45:17;3.45;;;1.33;;
54845;SDS011;53889;50.084;8.646;2022-09-02T00:47:45;4.40;;;1.10;;
54845;SDS011;53889;50.084;8.646;2022-09-02T00:50:14;2.47;;;1.20;;
54845;SDS011;53889;50.084;8.646;2022-09-02T00:52:45;3.42;;;1.40;;
54845;SDS011;53889;50.084;8.646;2022-09-02T00:55:18;2.38;;;1.15;;
54845;SDS011;53889;50.084;8.646;2022-09-02T00:57:47;2.67;;;1.30;;
54845;SDS011;53889;50.084;8.646;2022-09-02T01:00:18;3.05;;;1.13;;
54845;SDS011;53889;50.084;8.646;2022-09-02T01:02:47;2.63;;;1.40;;
54845;SDS011;53889;50.084;8.646;2022-09-02T01:05:16;2.42;;;1.30;;
54845;SDS011;53889;50.084;8.646;2022-09-02T01:07:44;2.47;;;1.35;;
54845;SDS011;53889;50.084;8.646;2022-09-02T01:10:12;3.75;;;1.38;;
54845;SDS011;53889;50.084;8.646;2022-09-02T01:12:43;3.25;;;1.30;;
54845;SDS011;53889;50.084;8.646;2022-09-02T01:15:10;4.00;;;1.50;;
54845;SDS011;53889;50.084;8.646;2022-09-02T01:17:39;3.65;;;1.40;;
54845;SDS011;53889;50.084;8.646;2022-09-02T01:20:09;2.97;;;1.33;;
54845;SDS011;53889;50.084;8.646;2022-09-02T01:22:39;4.20;;;1.40;;
54845;SDS011;53889;50.084;8.646;2022-09-02T01:25:08;3.88;;;1.45;;
54845;SDS011;53889;50.084;8.646;2022-09-02T01:27:37;4.25;;;1.40;;
54845;SDS011;53889;50.084;8.646;2022-09-02T01:30:05;5.50;;;1.30;;
54845;SDS011;53889;50.084;8.646;2022-09-02T01:32:36;3.53;;;1.10;;
54845;SDS011;53889;50.084;8.646;2022-09-02T01:35:03;2.15;;;1.30;;
54845;SDS011;53889;50.084;8.646;2022-09-02T01:37:31;2.63;;;1.30;;
54845;SDS011;53889;50.084;8.646;2022-09-02T01:40:00;4.55;;;1.40;;
54845;SDS011;53889;50.084;8.646;2022-09-02T01:42:27;3.90;;;1.23;;
54845;SDS011;53889;50.084;8.646;2022-09-02T01:44:54;3.25;;;1.38;;
54845;SDS011;53889;50.084;8.646;2022-09-02T01:47:22;3.25;;;1.33;;
54845;SDS011;53889;50.084;8.646;2022-09-02T01:49:50;3.10;;;1.27;;
54845;SDS011;53889;50.084;8.646;2022-09-02T01:52:18;3.83;;;1.30;;
54845;SDS011;53889;50.084;8.646;2022-09-02T01:54:46;4.68;;;1.17;;
54845;SDS011;53889;50.084;8.646;2022-09-02T01:57:14;5.07;;;1.48;;
54845;SDS011;53889;50.084;8.646;2022-09-02T01:59:42;3.00;;;1.40;;
54845;SDS011;53889;50.084;8.646;2022-09-02T02:02:11;2.40;;;1.30;;
54845;SDS011;53889;50.084;8.646;2022-09-02T02:04:37;2.58;;;1.20;;
54845;SDS011;53889;50.084;8.646;2022-09-02T02:07:05;2.25;;;1.20;;
54845;SDS011;53889;50.084;8.646;2022-09-02T02:09:33;5.88;;;1.50;;
54845;SDS011;53889;50.084;8.646;2022-09-02T02:12:00;4.25;;;1.45;;
54845;SDS011;53889;50.084;8.646;2022-09-02T02:14:29;2.65;;;1.20;;
54845;SDS011;53889;50.084;8.646;2022-09-02T02:16:56;4.15;;;1.30;;
54845;SDS011;53889;50.084;8.646;2022-09-02T02:19:23;2.45;;;1.20;;
54845;SDS011;53889;50.084;8.646;2022-09-02T02:21:50;3.65;;;1.38;;
54845;SDS011;53889;50.084;8.646;2022-09-02T02:24:16;3.10;;;1.20;;
54845;SDS011;53889;50.084;8.646;2022-09-02T02:26:43;3.10;;;1.20;;
54845;SDS011;53889;50.084;8.646;2022-09-02T02:29:11;4.38;;;1.20;;
54845;SDS011;53889;50.084;8.646;2022-09-02T02:31:40;3.15;;;1.48;;
54845;SDS011;53889;50.084;8.646;2022-09-02T02:34:08;2.40;;;1.20;;
54845;SDS011;53889;50.084;8.646;2022-09-02T02:36:36;2.97;;;1.20;;
54845;SDS011;53889;50.084;8.646;2022-09-02T02:39:03;4.07;;;1.20;;
54845;SDS011;53889;50.084;8.646;2022-09-02T02:41:30;2.08;;;1.10;;
54845;SDS011;53889;50.084;8.646;2022-09-02T02:43:57;3.92;;;1.50;;
54845;SDS011;53889;50.084;8.646;2022-09-02T02:46:24;2.42;;;1.30;;
54845;SDS011;53889;50.084;8.646;2022-09-02T02:48:52;3.60;;;1.30;;
54845;SDS011;53889;50.084;8.646;2022-09-02T02:51:19;2.45;;;1.38;;
54845;SDS011;53889;50.084;8.646;2022-09-02T02:53:48;3.67;;;1.20;;
54845;SDS011;53889;50.084;8.646;2022-09-02T02:56:15;2.30;;;1.13;;
54845;SDS011;53889;50.084;8.646;2022-09-02T02:58:42;3.03;;;1.30;;
54845;SDS011;53889;50.084;8.646;2022-09-02T03:01:08;3.58;;;1.30;;
54845;SDS011;53889;50.084;8.646;2022-09-02T03:03:35;2.85;;;1.30;;
54845;SDS011;53889;50.084;8.646;2022-09-02T03:06:04;3.47;;;1.40;;
54845;SDS011;53889;50.084;8.646;2022-09-02T03:08:31;3.53;;;1.30;;
54845;SDS011;53889;50.084;8.646;2022-09-02T03:11:00;2.10;;;1.08;;
54845;SDS011;53889;50.084;8.646;2022-09-02T03:13:29;2.95;;;1.30;;
54845;SDS011;53889;50.084;8.646;2022-09-02T03:15:58;4.88;;;1.33;;
54845;SDS011;53889;50.084;8.646;2022-09-02T03:18:25;3.17;;;1.42;;
54845;SDS011;53889;50.084;8.646;2022-09-02T03:20:52;2.38;;;1.30;;
54845;SDS011;53889;50.084;8.646;2022-09-02T03:23:21;2.28;;;1.10;;
54845;SDS011;53889;50.084;8.646;2022-09-02T03:25:48;4.70;;;1.55;;
54845;SDS011;53889;50.084;8.646;2022-09-02T03:28:24;2.13;;;1.23;;
54845;SDS011;53889;50.084;8.646;2022-09-02T03:30:52;2.80;;;1.20;;
54845;SDS011;53889;50.084;8.646;2022-09-02T03:33:18;2.88;;;1.30;;
54845;SDS011;53889;50.084;8.646;2022-09-02T03:35:45;3.50;;;1.42;;
54845;SDS011;53889;50.084;8.646;2022-09-02T03:38:13;2.10;;;1.20;;
54845;SDS011;53889;50.084;8.646;2022-09-02T03:40:42;2.03;;;1.30;;
54845;SDS011;53889;50.084;8.646;2022-09-02T03:43:08;4.13;;;1.30;;
54845;SDS011;53889;50.084;8.646;2022-09-02T03:45:36;2.92;;;1.25;;
54845;SDS011;53889;50.084;8.646;2022-09-02T03:48:06;3.08;;;1.27;;
54845;SDS011;53889;50.084;8.646;2022-09-02T03:50:37;4.10;;;1.70;;
54845;SDS011;53889;50.084;8.646;2022-09-02T03:53:13;3.78;;;1.33;;
54845;SDS011;53889;50.084;8.646;2022-09-02T03:55:41;3.22;;;1.30;;
54845;SDS011;53889;50.084;8.646;2022-09-02T03:58:11;3.00;;;1.30;;
54845;SDS011;53889;50.084;8.646;2022-09-02T04:00:39;2.10;;;1.25;;
54845;SDS011;53889;50.084;8.646;2022-09-02T04:03:06;4.43;;;1.52;;
54845;SDS011;53889;50.084;8.646;2022-09-02T04:05:33;5.18;;;1.50;;
54845;SDS011;53889;50.084;8.646;2022-09-02T04:07:59;4.78;;;1.60;;
54845;SDS011;53889;50.084;8.646;2022-09-02T04:10:27;3.17;;;1.70;;
54845;SDS011;53889;50.084;8.646;2022-09-02T04:12:56;3.28;;;1.40;;
54845;SDS011;53889;50.084;8.646;2022-09-02T04:15:23;4.93;;;1.40;;
54845;SDS011;53889;50.084;8.646;2022-09-02T04:17:50;5.43;;;1.77;;
54845;SDS011;53889;50.084;8.646;2022-09-02T04:20:19;5.55;;;1.70;;
54845;SDS011;53889;50.084;8.646;2022-09-02T04:22:47;5.47;;;1.85;;
54845;SDS011;53889;50.084;8.646;2022-09-02T04:25:14;2.28;;;1.30;;
54845;SDS011;53889;50.084;8.646;2022-09-02T04:27:43;3.17;;;1.25;;
54845;SDS011;53889;50.084;8.646;2022-09-02T04:30:11;3.72;;;1.45;;
54845;SDS011;53889;50.084;8.646;2022-09-02T04:32:41;3.08;;;1.45;;
54845;SDS011;53889;50.084;8.646;2022-09-02T04:35:08;4.65;;;1.27;;
54845;SDS011;53889;50.084;8.646;2022-09-02T04:37:36;4.28;;;1.60;;
54845;SDS011;53889;50.084;8.646;2022-09-02T04:40:03;4.80;;;1.70;;
54845;SDS011;53889;50.084;8.646;2022-09-02T04:42:31;11.35;;;1.75;;
54845;SDS011;53889;50.084;8.646;2022-09-02T04:44:58;3.75;;;1.50;;
54845;SDS011;53889;50.084;8.646;2022-09-02T04:47:27;6.53;;;1.70;;
54845;SDS011;53889;50.084;8.646;2022-09-02T04:49:55;4.38;;;2.08;;
54845;SDS011;53889;50.084;8.646;2022-09-02T04:52:22;8.45;;;4.32;;
54845;SDS011;53889;50.084;8.646;2022-09-02T04:54:50;25.80;;;13.55;;
54845;SDS011;53889;50.084;8.646;2022-09-02T04:57:16;35.65;;;19.60;;
54845;SDS011;53889;50.084;8.646;2022-09-02T04:59:43;22.67;;;11.93;;
54845;SDS011;53889;50.084;8.646;2022-09-02T05:02:11;5.57;;;2.63;;
54845;SDS011;53889;50.084;8.646;2022-09-02T05:04:40;8.02;;;2.35;;
54845;SDS011;53889;50.084;8.646;2022-09-02T05:07:15;4.15;;;1.83;;
54845;SDS011;53889;50.084;8.646;2022-09-02T05:09:44;8.65;;;2.30;;
54845;SDS011;53889;50.084;8.646;2022-09-02T05:12:11;6.10;;;2.10;;
54845;SDS011;53889;50.084;8.646;2022-09-02T05:17:15;8.95;;;2.78;;
54845;SDS011;53889;50.084;8.646;2022-09-02T05:19:45;11.00;;;2.00;;
54845;SDS011;53889;50.084;8.646;2022-09-02T05:22:14;8.10;;;2.42;;
54845;SDS011;53889;50.084;8.646;2022-09-02T05:24:41;12.55;;;2.30;;
54845;SDS011;53889;50.084;8.646;2022-09-02T05:27:11;9.75;;;2.63;;
54845;SDS011;53889;50.084;8.646;2022-09-02T05:29:40;12.23;;;5.05;;
54845;SDS011;53889;50.084;8.646;2022-09-02T05:32:07;12.48;;;3.97;;
54845;SDS011;53889;50.084;8.646;2022-09-02T05:34:37;9.20;;;2.58;;
54845;SDS011;53889;50.084;8.646;2022-09-02T05:37:05;4.38;;;1.92;;
54845;SDS011;53889;50.084;8.646;2022-09-02T05:39:33;8.02;;;2.55;;
54845;SDS011;53889;50.084;8.646;2022-09-02T05:42:03;9.55;;;2.17;;
54845;SDS011;53889;50.084;8.646;2022-09-02T05:44:31;13.32;;;4.60;;
54845;SDS011;53889;50.084;8.646;2022-09-02T05:47:00;7.60;;;2.10;;
54845;SDS011;53889;50.084;8.646;2022-09-02T05:49:27;5.53;;;1.95;;
54845;SDS011;53889;50.084;8.646;2022-09-02T05:51:59;6.72;;;1.95;;
54845;SDS011;53889;50.084;8.646;2022-09-02T05:54:33;11.15;;;2.05;;
54845;SDS011;53889;50.084;8.646;2022-09-02T05:57:06;5.43;;;1.52;;
54845;SDS011;53889;50.084;8.646;2022-09-02T05:59:38;8.27;;;2.00;;
54845;SDS011;53889;50.084;8.646;2022-09-02T06:02:07;6.10;;;1.70;;
54845;SDS011;53889;50.084;8.646;2022-09-02T06:04:37;4.57;;;1.83;;
54845;SDS011;53889;50.084;8.646;2022-09-02T06:07:04;7.28;;;1.60;;
54845;SDS011;53889;50.084;8.646;2022-09-02T06:09:32;5.45;;;1.50;;
54845;SDS011;53889;50.084;8.646;2022-09-02T06:12:00;9.90;;;2.58;;
54845;SDS011;53889;50.084;8.646;2022-09-02T06:14:30;5.75;;;1.60;;
54845;SDS011;53889;50.084;8.646;2022-09-02T06:16:58;4.70;;;1.60;;
54845;SDS011;53889;50.084;8.646;2022-09-02T06:19:32;4.10;;;1.40;;
54845;SDS011;53889;50.084;8.646;2022-09-02T06:22:01;6.60;;;1.70;;
54845;SDS011;53889;50.084;8.646;2022-09-02T06:24:29;5.65;;;1.70;;
54845;SDS011;53889;50.084;8.646;2022-09-02T06:27:00;5.30;;;1.38;;
54845;SDS011;53889;50.084;8.646;2022-09-02T06:29:27;8.55;;;1.65;;
54845;SDS011;53889;50.084;8.646;2022-09-02T06:31:55;4.53;;;1.30;;
54845;SDS011;53889;50.084;8.646;2022-09-02T06:34:23;5.15;;;1.40;;
54845;SDS011;53889;50.084;8.646;2022-09-02T06:36:52;2.17;;;1.27;;
54845;SDS011;53889;50.084;8.646;2022-09-02T06:39:20;4.05;;;1.33;;
54845;SDS011;53889;50.084;8.646;2022-09-02T06:41:50;3.97;;;1.30;;
54845;SDS011;53889;50.084;8.646;2022-09-02T06:44:20;4.35;;;1.52;;
54845;SDS011;53889;50.084;8.646;2022-09-02T06:46:48;2.65;;;1.20;;
54845;SDS011;53889;50.084;8.646;2022-09-02T06:49:19;2.92;;;1.33;;
54845;SDS011;53889;50.084;8.646;2022-09-02T06:51:48;3.60;;;1.30;;
54845;SDS011;53889;50.084;8.646;2022-09-02T06:54:18;4.32;;;1.10;;
54845;SDS011;53889;50.084;8.646;2022-09-02T06:56:49;5.43;;;1.35;;
54845;SDS011;53889;50.084;8.646;2022-09-02T06:59:22;3.05;;;1.10;;
54845;SDS011;53889;50.084;8.646;2022-09-02T07:01:55;2.35;;;1.10;;
54845;SDS011;53889;50.084;8.646;2022-09-02T07:04:23;3.72;;;1.25;;
54845;SDS011;53889;50.084;8.646;2022-09-02T07:07:11;4.32;;;1.25;;
54845;SDS011;53889;50.084;8.646;2022-09-02T07:09:43;4.32;;;1.20;;
54845;SDS011;53889;50.084;8.646;2022-09-02T07:12:14;2.28;;;1.20;;
54845;SDS011;53889;50.084;8.646;2022-09-02T07:14:48;3.22;;;1.20;;
54845;SDS011;53889;50.084;8.646;2022-09-02T07:17:20;5.65;;;2.00;;
54845;SDS011;53889;50.084;8.646;2022-09-02T07:19:52;2.42;;;1.00;;
54845;SDS011;53889;50.084;8.646;2022-09-02T07:22:22;2.53;;;1.10;;
54845;SDS011;53889;50.084;8.646;2022-09-02T07:24:48;3.17;;;1.17;;
54845;SDS011;53889;50.084;8.646;2022-09-02T07:27:15;2.97;;;1.13;;
54845;SDS011;53889;50.084;8.646;2022-09-02T07:29:44;2.40;;;1.08;;
54845;SDS011;53889;50.084;8.646;2022-09-02T07:32:14;3.03;;;1.10;;
54845;SDS011;53889;50.084;8.646;2022-09-02T07:34:41;4.40;;;1.15;;
54845;SDS011;53889;50.084;8.646;2022-09-02T07:37:10;3.15;;;1.30;;
54845;SDS011;53889;50.084;8.646;2022-09-02T07:39:39;2.75;;;1.30;;
54845;SDS011;53889;50.084;8.646;2022-09-02T07:42:08;2.35;;;1.10;;
54845;SDS011;53889;50.084;8.646;2022-09-02T07:44:35;4.00;;;2.42;;
54845;SDS011;53889;50.084;8.646;2022-09-02T07:47:03;2.10;;;0.90;;
54845;SDS011;53889;50.084;8.646;2022-09-02T07:49:35;2.30;;;0.90;;
54845;SDS011;53889;50.084;8.646;2022-09-02T07:52:02;2.33;;;1.00;;
54845;SDS011;53889;50.084;8.646;2022-09-02T07:54:28;3.08;;;1.17;;
54845;SDS011;53889;50.084;8.646;2022-09-02T07:56:56;3.22;;;1.08;;
54845;SDS011;53889;50.084;8.646;2022-09-02T07:59:23;2.95;;;1.00;;
54845;SDS011;53889;50.084;8.646;2022-09-02T08:01:53;2.92;;;1.00;;
54845;SDS011;53889;50.084;8.646;2022-09-02T08:04:21;2.85;;;1.02;;
54845;SDS011;53889;50.084;8.646;2022-09-02T08:06:50;2.28;;;0.90;;
54845;SDS011;53889;50.084;8.646;2022-09-02T08:09:17;4.15;;;1.00;;
54845;SDS011;53889;50.084;8.646;2022-09-02T08:11:45;2.25;;;0.90;;
54845;SDS011;53889;50.084;8.646;2022-09-02T08:14:15;2.15;;;0.90;;
54845;SDS011;53889;50.084;8.646;2022-09-02T08:16:45;2.40;;;1.05;;
54845;SDS011;53889;50.084;8.646;2022-09-02T08:19:13;2.72;;;1.10;;
54845;SDS011;53889;50.084;8.646;2022-09-02T08:21:40;2.25;;;1.00;;
54845;SDS011;53889;50.084;8.646;2022-09-02T08:24:08;2.55;;;1.00;;
54845;SDS011;53889;50.084;8.646;2022-09-02T08:26:35;2.08;;;0.90;;
54845;SDS011;53889;50.084;8.646;2022-09-02T08:29:02;7.88;;;1.33;;
54845;SDS011;53889;50.084;8.646;2022-09-02T08:31:29;2.00;;;0.88;;
54845;SDS011;53889;50.084;8.646;2022-09-02T08:33:57;2.00;;;1.27;;
54845;SDS011;53889;50.084;8.646;2022-09-02T08:36:23;1.90;;;0.82;;
54845;SDS011;53889;50.084;8.646;2022-09-02T08:38:51;7.90;;;1.15;;
54845;SDS011;53889;50.084;8.646;2022-09-02T08:41:22;2.75;;;0.85;;
54845;SDS011;53889;50.084;8.646;2022-09-02T08:43:50;3.75;;;0.93;;
54845;SDS011;53889;50.084;8.646;2022-09-02T08:46:20;2.17;;;1.00;;
54845;SDS011;53889;50.084;8.646;2022-09-02T08:48:51;2.03;;;0.90;;
54845;SDS011;53889;50.084;8.646;2022-09-02T08:51:22;1.08;;;0.80;;
54845;SDS011;53889;50.084;8.646;2022-09-02T08:53:53;2.97;;;0.93;;
54845;SDS011;53889;50.084;8.646;2022-09-02T08:56:27;2.28;;;0.93;;
54845;SDS011;53889;50.084;8.646;2022-09-02T08:58:55;2.47;;;0.88;;
54845;SDS011;53889;50.084;8.646;2022-09-02T09:01:24;3.05;;;1.00;;
54845;SDS011;53889;50.084;8.646;2022-09-02T09:04:11;3.00;;;0.85;;
54845;SDS011;53889;50.084;8.646;2022-09-02T09:06:52;4.78;;;0.90;;
54845;SDS011;53889;50.084;8.646;2022-09-02T09:09:35;2.17;;;0.70;;
54845;SDS011;53889;50.084;8.646;2022-09-02T09:12:14;1.80;;;0.90;;
54845;SDS011;53889;50.084;8.646;2022-09-02T09:14:48;3.15;;;0.85;;
54845;SDS011;53889;50.084;8.646;2022-09-02T09:17:24;2.35;;;1.02;;
54845;SDS011;53889;50.084;8.646;2022-09-02T09:19:57;2.40;;;0.90;;
54845;SDS011;53889;50.084;8.646;2022-09-02T09:22:29;46.28;;;3.30;;
54845;SDS011;53889;50.084;8.646;2022-09-02T09:24:58;2.45;;;0.80;;
54845;SDS011;53889;50.084;8.646;2022-09-02T09:27:26;1.67;;;0.80;;
54845;SDS011;53889;50.084;8.646;2022-09-02T09:29:53;1.63;;;0.70;;
54845;SDS011;53889;50.084;8.646;2022-09-02T09:32:21;2.97;;;0.90;;
54845;SDS011;53889;50.084;8.646;2022-09-02T09:34:55;3.15;;;0.82;;
54845;SDS011;53889;50.084;8.646;2022-09-02T09:37:30;2.33;;;0.88;;
54845;SDS011;53889;50.084;8.646;2022-09-02T09:39:58;1.80;;;0.88;;
54845;SDS011;53889;50.084;8.646;2022-09-02T09:42:33;1.45;;;0.80;;
54845;SDS011;53889;50.084;8.646;2022-09-02T09:45:14;5.13;;;1.00;;
54845;SDS011;53889;50.084;8.646;2022-09-02T09:47:44;1.75;;;0.60;;
54845;SDS011;53889;50.084;8.646;2022-09-02T09:50:11;3.25;;;0.80;;
54845;SDS011;53889;50.084;8.646;2022-09-02T09:52:41;2.50;;;0.82;;
54845;SDS011;53889;50.084;8.646;2022-09-02T09:55:12;3.42;;;0.82;;
54845;SDS011;53889;50.084;8.646;2022-09-02T09:57:43;1.50;;;0.77;;
54845;SDS011;53889;50.084;8.646;2022-09-02T10:00:19;4.30;;;1.08;;
54845;SDS011;53889;50.084;8.646;2022-09-02T10:02:51;1.10;;;0.60;;
54845;SDS011;53889;50.084;8.646;2022-09-02T10:05:27;3.03;;;0.70;;
54845;SDS011;53889;50.084;8.646;2022-09-02T10:07:57;2.10;;;0.80;;
54845;SDS011;53889;50.084;8.646;2022-09-02T10:10:26;2.80;;;0.85;;
54845;SDS011;53889;50.084;8.646;2022-09-02T10:12:55;2.83;;;0.68;;
54845;SDS011;53889;50.084;8.646;2022-09-02T10:15:28;1.98;;;0.80;;
54845;SDS011;53889;50.084;8.646;2022-09-02T10:18:03;1.75;;;0.80;;
54845;SDS011;53889;50.084;8.646;2022-09-02T10:20:42;2.88;;;0.70;;
54845;SDS011;53889;50.084;8.646;2022-09-02T10:23:24;1.67;;;0.80;;
54845;SDS011;53889;50.084;8.646;2022-09-02T10:26:15;2.80;;;0.90;;
54845;SDS011;53889;50.084;8.646;2022-09-02T10:31:47;3.47;;;0.90;;
54845;SDS011;53889;50.084;8.646;2022-09-02T10:34:23;2.83;;;0.70;;
54845;SDS011;53889;50.084;8.646;2022-09-02T10:37:05;1.48;;;0.63;;
54845;SDS011;53889;50.084;8.646;2022-09-02T10:39:46;7.18;;;1.20;;
54845;SDS011;53889;50.084;8.646;2022-09-02T10:42:33;2.93;;;0.93;;
54845;SDS011;53889;50.084;8.646;2022-09-02T10:45:12;3.42;;;1.00;;
54845;SDS011;53889;50.084;8.646;2022-09-02T10:47:41;5.63;;;0.93;;
54845;SDS011;53889;50.084;8.646;2022-09-02T10:50:16;5.05;;;0.90;;
54845;SDS011;53889;50.084;8.646;2022-09-02T10:52:55;5.25;;;1.05;;
54845;SDS011;53889;50.084;8.646;2022-09-02T10:55:35;6.32;;;1.10;;
54845;SDS011;53889;50.084;8.646;2022-09-02T11:00:40;5.10;;;1.10;;
54845;SDS011;53889;50.084;8.646;2022-09-02T11:03:16;4.75;;;0.93;;
54845;SDS011;53889;50.084;8.646;2022-09-02T11:05:49;1.85;;;0.88;;
54845;SDS011;53889;50.084;8.646;2022-09-02T11:08:19;4.82;;;1.00;;
54845;SDS011;53889;50.084;8.646;2022-09-02T11:10:53;3.05;;;0.80;;
54845;SDS011;53889;50.084;8.646;2022-09-02T11:13:27;1.90;;;0.80;;
54845;SDS011;53889;50.084;8.646;2022-09-02T11:16:04;2.20;;;1.00;;
54845;SDS011;53889;50.084;8.646;2022-09-02T11:18:40;2.28;;;0.60;;
54845;SDS011;53889;50.084;8.646;2022-09-02T11:21:16;2.15;;;0.75;;
54845;SDS011;53889;50.084;8.646;2022-09-02T11:23:52;2.38;;;0.90;;
54845;SDS011;53889;50.084;8.646;2022-09-02T11:26:25;1.85;;;0.70;;
54845;SDS011;53889;50.084;8.646;2022-09-02T11:28:57;1.73;;;0.80;;
54845;SDS011;53889;50.084;8.646;2022-09-02T11:31:31;4.97;;;0.80;;
54845;SDS011;53889;50.084;8.646;2022-09-02T11:34:03;1.80;;;0.90;;
54845;SDS011;53889;50.084;8.646;2022-09-02T11:36:37;2.47;;;0.75;;
54845;SDS011;53889;50.084;8.646;2022-09-02T11:39:06;2.38;;;0.80;;
54845;SDS011;53889;50.084;8.646;2022-09-02T11:41:45;1.48;;;0.70;;
54845;SDS011;53889;50.084;8.646;2022-09-02T11:44:30;2.53;;;0.80;;
54845;SDS011;53889;50.084;8.646;2022-09-02T11:50:14;1.25;;;0.63;;
54845;SDS011;53889;50.084;8.646;2022-09-02T11:52:55;3.20;;;0.75;;
54845;SDS011;53889;50.084;8.646;2022-09-02T11:55:30;1.48;;;0.73;;
54845;SDS011;53889;50.084;8.646;2022-09-02T11:58:01;1.90;;;0.63;;
54845;SDS011;53889;50.084;8.646;2022-09-02T12:00:30;1.55;;;0.60;;
54845;SDS011;53889;50.084;8.646;2022-09-02T12:03:15;3.13;;;0.80;;
54845;SDS011;53889;50.084;8.646;2022-09-02T12:05:48;2.83;;;0.90;;
54845;SDS011;53889;50.084;8.646;2022-09-02T12:14:05;1.97;;;0.80;;
54845;SDS011;53889;50.084;8.646;2022-09-02T12:16:39;1.30;;;0.80;;
54845;SDS011;53889;50.084;8.646;2022-09-02T12:19:28;2.22;;;0.75;;
54845;SDS011;53889;50.084;8.646;2022-09-02T12:33:39;4.05;;;1.00;;
54845;SDS011;53889;50.084;8.646;2022-09-02T12:36:09;2.25;;;0.80;;
54845;SDS011;53889;50.084;8.646;2022-09-02T12:42:18;1.33;;;0.73;;
54845;SDS011;53889;50.084;8.646;2022-09-02T12:44:51;3.80;;;1.00;;
54845;SDS011;53889;50.084;8.646;2022-09-02T12:47:28;1.40;;;0.65;;
54845;SDS011;53889;50.084;8.646;2022-09-02T12:50:04;2.05;;;0.88;;
54845;SDS011;53889;50.084;8.646;2022-09-02T12:52:41;1.85;;;0.70;;
54845;SDS011;53889;50.084;8.646;2022-09-02T12:55:13;1.60;;;0.68;;
54845;SDS011;53889;50.084;8.646;2022-09-02T12:57:44;1.40;;;0.70;;
54845;SDS011;53889;50.084;8.646;2022-09-02T13:00:16;3.15;;;0.80;;
54845;SDS011;53889;50.084;8.646;2022-09-02T13:02:55;1.42;;;0.70;;
54845;SDS011;53889;50.084;8.646;2022-09-02T13:05:36;9.85;;;0.85;;
54845;SDS011;53889;50.084;8.646;2022-09-02T13:08:36;1.23;;;0.70;;
54845;SDS011;53889;50.084;8.646;2022-09-02T13:16:58;2.40;;;0.70;;
54845;SDS011;53889;50.084;8.646;2022-09-02T13:19:49;1.48;;;0.80;;
54845;SDS011;53889;50.084;8.646;2022-09-02T13:22:44;1.85;;;0.60;;
54845;SDS011;53889;50.084;8.646;2022-09-02T13:25:40;3.13;;;0.90;;
54845;SDS011;53889;50.084;8.646;2022-09-02T13:33:45;2.90;;;0.90;;
54845;SDS011;53889;50.084;8.646;2022-09-02T13:36:18;4.18;;;0.80;;
54845;SDS011;53889;50.084;8.646;2022-09-02T13:38:49;3.33;;;0.68;;
54845;SDS011;53889;50.084;8.646;2022-09-02T13:41:27;1.48;;;0.70;;
54845;SDS011;53889;50.084;8.646;2022-09-02T13:44:04;3.42;;;0.80;;
54845;SDS011;53889;50.084;8.646;2022-09-02T13:46:33;1.05;;;0.70;;
54845;SDS011;53889;50.084;8.646;2022-09-02T13:51:40;2.15;;;0.80;;
54845;SDS011;53889;50.084;8.646;2022-09-02T13:54:09;5.10;;;0.85;;
54845;SDS011;53889;50.084;8.646;2022-09-02T13:56:38;4.05;;;0.90;;
54845;SDS011;53889;50.084;8.646;2022-09-02T13:59:05;3.20;;;0.80;;
54845;SDS011;53889;50.084;8.646;2022-09-02T14:01:32;1.55;;;0.70;;
54845;SDS011;53889;50.084;8.646;2022-09-02T14:04:01;2.35;;;0.90;;
54845;SDS011;53889;50.084;8.646;2022-09-02T14:06:31;2.38;;;0.80;;
54845;SDS011;53889;50.084;8.646;2022-09-02T14:09:01;2.35;;;0.65;;
54845;SDS011;53889;50.084;8.646;2022-09-02T14:11:32;2.65;;;0.60;;
54845;SDS011;53889;50.084;8.646;2022-09-02T14:14:04;2.20;;;0.75;;
54845;SDS011;53889;50.084;8.646;2022-09-02T14:16:32;1.40;;;0.80;;
54845;SDS011;53889;50.084;8.646;2022-09-02T14:19:03;1.92;;;0.80;;
54845;SDS011;53889;50.084;8.646;2022-09-02T14:21:35;2.40;;;0.75;;
54845;SDS011;53889;50.084;8.646;2022-09-02T14:24:09;2.28;;;0.93;;
54845;SDS011;53889;50.084;8.646;2022-09-02T14:26:40;3.30;;;0.90;;
54845;SDS011;53889;50.084;8.646;2022-09-02T14:29:11;4.53;;;0.88;;
54845;SDS011;53889;50.084;8.646;2022-09-02T14:31:40;1.90;;;0.63;;
54845;SDS011;53889;50.084;8.646;2022-09-02T14:36:58;2.28;;;0.90;;
54845;SDS011;53889;50.084;8.646;2022-09-02T14:39:49;5.03;;;0.75;;
54845;SDS011;53889;50.084;8.646;2022-09-02T14:42:29;1.70;;;0.75;;
54845;SDS011;53889;50.084;8.646;2022-09-02T14:44:57;2.80;;;0.80;;
54845;SDS011;53889;50.084;8.646;2022-09-02T14:47:24;1.38;;;0.70;;
54845;SDS011;53889;50.084;8.646;2022-09-02T14:49:52;3.30;;;0.70;;
54845;SDS011;53889;50.084;8.646;2022-09-02T14:52:21;2.92;;;0.80;;
54845;SDS011;53889;50.084;8.646;2022-09-02T14:54:50;2.30;;;0.70;;
54845;SDS011;53889;50.084;8.646;2022-09-02T14:57:19;2.17;;;0.82;;
54845;SDS011;53889;50.084;8.646;2022-09-02T14:59:48;2.42;;;0.80;;
54845;SDS011;53889;50.084;8.646;2022-09-02T15:02:21;3.83;;;0.70;;
54845;SDS011;53889;50.084;8.646;2022-09-02T15:04:49;3.05;;;0.90;;
54845;SDS011;53889;50.084;8.646;2022-09-02T15:07:16;2.55;;;0.90;;
54845;SDS011;53889;50.084;8.646;2022-09-02T15:09:42;1.90;;;0.82;;
54845;SDS011;53889;50.084;8.646;2022-09-02T15:12:10;14.75;;;1.73;;
54845;SDS011;53889;50.084;8.646;2022-09-02T15:14:37;2.85;;;0.80;;
54845;SDS011;53889;50.084;8.646;2022-09-02T15:17:06;1.38;;;0.70;;
54845;SDS011;53889;50.084;8.646;2022-09-02T15:19:36;1.95;;;0.68;;
54845;SDS011;53889;50.084;8.646;2022-09-02T15:22:03;2.55;;;0.70;;
54845;SDS011;53889;50.084;8.646;2022-09-02T15:24:30;2.70;;;0.80;;
54845;SDS011;53889;50.084;8.646;2022-09-02T15:26:56;2.38;;;0.60;;
54845;SDS011;53889;50.084;8.646;2022-09-02T15:29:23;1.50;;;0.68;;
54845;SDS011;53889;50.084;8.646;2022-09-02T15:31:50;1.67;;;0.70;;
54845;SDS011;53889;50.084;8.646;2022-09-02T15:34:17;2.33;;;0.70;;
54845;SDS011;53889;50.084;8.646;2022-09-02T15:36:45;2.13;;;0.80;;
54845;SDS011;53889;50.084;8.646;2022-09-02T15:39:12;3.83;;;0.80;;
54845;SDS011;53889;50.084;8.646;2022-09-02T15:41:39;3.75;;;0.80;;
54845;SDS011;53889;50.084;8.646;2022-09-02T15:44:08;2.15;;;0.80;;
54845;SDS011;53889;50.084;8.646;2022-09-02T15:46:36;1.38;;;0.80;;
54845;SDS011;53889;50.084;8.646;2022-09-02T15:49:04;1.77;;;0.80;;
54845;SDS011;53889;50.084;8.646;2022-09-02T15:51:32;1.77;;;0.80;;
54845;SDS011;53889;50.084;8.646;2022-09-02T15:54:01;1.80;;;0.70;;
54845;SDS011;53889;50.084;8.646;2022-09-02T15:56:30;2.97;;;0.80;;